createdAt,value
2019-04-20T00:00:06.681Z,15.90
2019-04-20T00:02:44.069Z,15.20
2019-04-20T00:05:16.987Z,16.62
2019-04-20T00:07:52.162Z,15.43
2019-04-20T00:10:27.260Z,15.35
2019-04-20T00:13:11.411Z,16.52
2019-04-20T00:15:38.930Z,15.13
2019-04-20T00:18:15.039Z,15.98
2019-04-20T00:21:00.367Z,18.35
2019-04-20T00:23:45.052Z,15.83
2019-04-20T00:27:03.638Z,14.40
2019-04-20T00:29:25.406Z,13.85
2019-04-20T00:31:56.652Z,15.28
2019-04-20T00:34:26.718Z,14.38
2019-04-20T00:36:54.244Z,16.17
2019-04-20T00:39:30.353Z,15.93
2019-04-20T00:42:08.013Z,15.28
2019-04-20T00:44:43.841Z,14.45
2019-04-20T00:47:30.723Z,13.70
2019-04-20T00:50:00.889Z,13.00
2019-04-20T00:52:45.212Z,13.55
2019-04-20T00:55:02.391Z,11.83
2019-04-20T00:57:46.610Z,12.85
2019-04-20T01:00:33.897Z,11.95
2019-04-20T01:03:11.059Z,12.63
2019-04-20T01:05:53.029Z,10.50
2019-04-20T01:08:21.636Z,10.55
2019-04-20T01:11:00.731Z,11.45
2019-04-20T01:13:42.187Z,12.50
2019-04-20T01:16:26.803Z,11.10
2019-04-20T01:18:48.262Z,10.60
2019-04-20T01:21:28.827Z,11.43
2019-04-20T01:24:04.649Z,11.40
2019-04-20T01:26:43.509Z,11.63
2019-04-20T01:29:21.754Z,10.15
2019-04-20T01:32:00.722Z,9.60
2019-04-20T01:34:39.325Z,10.00
2019-04-20T01:37:14.458Z,8.23
2019-04-20T01:39:41.847Z,9.30
2019-04-20T01:42:13.046Z,9.68
2019-04-20T01:44:50.802Z,9.53
2019-04-20T01:47:32.086Z,10.20
2019-04-20T01:50:08.579Z,8.15
2019-04-20T01:52:50.851Z,9.95
2019-04-20T01:55:44.032Z,8.58
2019-04-20T01:58:30.327Z,9.58
2019-04-20T02:01:21.034Z,10.32
2019-04-20T02:03:56.845Z,10.88
2019-04-20T02:06:31.809Z,10.78
2019-04-20T02:09:16.686Z,12.05
2019-04-20T02:11:47.392Z,11.30
2019-04-20T02:14:27.326Z,12.75
2019-04-20T02:17:06.956Z,11.73
2019-04-20T02:20:04.603Z,11.73
2019-04-20T02:22:38.346Z,12.53
2019-04-20T02:24:55.132Z,12.78
2019-04-20T02:27:36.797Z,13.05
2019-04-20T02:42:20.331Z,12.18
2019-04-20T02:44:44.269Z,12.35
2019-04-20T02:47:21.619Z,12.98
2019-04-20T02:50:15.275Z,13.53
2019-04-20T02:57:55.186Z,12.75
2019-04-20T03:00:19.790Z,13.43
2019-04-20T03:02:46.048Z,14.10
2019-04-20T03:05:25.641Z,12.05
2019-04-20T03:08:02.862Z,11.48
2019-04-20T03:10:46.439Z,12.15
2019-04-20T03:13:18.622Z,12.85
2019-04-20T03:15:56.474Z,12.75
2019-04-20T03:18:32.123Z,12.53
2019-04-20T03:21:13.978Z,11.85
2019-04-20T03:23:54.250Z,11.78
2019-04-20T03:26:37.922Z,13.62
2019-04-20T03:29:30.605Z,11.95
2019-04-20T03:32:38.343Z,11.80
2019-04-20T03:37:38.205Z,12.80
2019-04-20T03:40:16.875Z,12.93
2019-04-20T03:42:33.092Z,13.22
2019-04-20T03:45:14.401Z,12.80
2019-04-20T03:48:03.034Z,11.85
2019-04-20T03:50:46.243Z,13.10
2019-04-20T03:53:27.794Z,13.80
2019-04-20T03:56:30.991Z,15.23
2019-04-20T03:59:08.145Z,12.60
2019-04-20T04:02:14.863Z,14.23
2019-04-20T04:04:54.570Z,14.53
2019-04-20T04:07:22.868Z,14.33
2019-04-20T04:10:08.437Z,15.15
2019-04-20T04:13:14.733Z,15.03
2019-04-20T04:15:57.492Z,14.28
2019-04-20T04:18:36.825Z,16.20
2019-04-20T04:21:10.002Z,15.90
2019-04-20T04:23:58.902Z,17.20
2019-04-20T04:26:37.820Z,17.75
2019-04-20T04:29:30.169Z,15.70
2019-04-20T04:32:14.122Z,14.63
2019-04-20T04:34:45.894Z,14.63
2019-04-20T04:37:17.624Z,12.88
2019-04-20T04:39:56.042Z,11.97
2019-04-20T04:42:30.379Z,11.68
2019-04-20T04:44:53.649Z,12.60
2019-04-20T04:47:26.275Z,13.65
2019-04-20T04:50:10.987Z,11.80
2019-04-20T04:52:53.690Z,12.15
2019-04-20T04:55:34.141Z,12.13
2019-04-20T04:57:58.436Z,12.80
2019-04-20T05:00:34.718Z,11.40
2019-04-20T05:03:26.686Z,11.90
2019-04-20T05:06:14.860Z,11.33
2019-04-20T05:08:42.008Z,10.25
2019-04-20T05:11:11.050Z,10.43
2019-04-20T05:13:54.646Z,10.93
2019-04-20T05:16:47.066Z,10.03
2019-04-20T05:19:26.096Z,10.45
2019-04-20T05:22:17.773Z,10.85
2019-04-20T05:25:05.748Z,10.50
2019-04-20T05:27:56.253Z,9.88
2019-04-20T05:30:11.870Z,9.20
2019-04-20T05:32:56.111Z,8.98
2019-04-20T05:35:44.133Z,9.88
2019-04-20T05:38:37.173Z,10.25
2019-04-20T05:41:11.829Z,8.88
2019-04-20T05:44:04.686Z,9.38
2019-04-20T05:46:59.924Z,9.20
2019-04-20T05:49:34.568Z,9.23
2019-04-20T05:52:36.193Z,9.10
2019-04-20T05:55:23.688Z,8.78
2019-04-20T05:58:11.222Z,9.60
2019-04-20T06:01:00.217Z,10.08
2019-04-20T06:03:37.149Z,8.55
2019-04-20T06:06:15.176Z,8.85
2019-04-20T06:09:08.569Z,9.48
2019-04-20T06:11:56.253Z,8.05
2019-04-20T06:14:39.464Z,9.13
2019-04-20T06:17:31.680Z,8.53
2019-04-20T06:20:15.564Z,8.53
2019-04-20T06:22:59.956Z,8.93
2019-04-20T06:26:07.565Z,9.43
2019-04-20T06:28:23.358Z,8.63
2019-04-20T06:30:52.620Z,7.80
2019-04-20T06:36:57.124Z,8.10
2019-04-20T06:39:40.716Z,7.60
2019-04-20T06:42:15.121Z,7.85
2019-04-20T06:44:50.814Z,6.85
2019-04-20T06:47:47.344Z,7.80
2019-04-20T06:50:01.780Z,7.03
2019-04-20T06:53:20.520Z,7.75
2019-04-20T06:55:59.985Z,9.28
2019-04-20T06:58:39.030Z,8.83
2019-04-20T07:01:02.152Z,10.53
2019-04-20T07:03:56.446Z,10.82
2019-04-20T07:06:32.130Z,9.38
2019-04-20T07:08:57.396Z,10.10
2019-04-20T07:11:23.252Z,9.03
2019-04-20T07:13:43.510Z,8.30
2019-04-20T07:16:36.375Z,7.75
2019-04-20T07:19:18.571Z,7.30
2019-04-20T07:24:56.656Z,7.05
2019-04-20T07:27:30.725Z,6.50
2019-04-20T07:30:07.378Z,7.03
2019-04-20T07:32:51.148Z,5.20
2019-04-20T07:35:14.212Z,5.58
2019-04-20T07:40:28.992Z,4.87
2019-04-20T07:43:19.739Z,4.75
2019-04-20T07:45:46.614Z,4.25
2019-04-20T07:48:25.779Z,3.67
2019-04-20T07:50:40.925Z,3.62
2019-04-20T07:53:24.612Z,3.12
2019-04-20T07:56:04.701Z,3.33
2019-04-20T07:58:25.060Z,3.65
2019-04-20T08:01:23.744Z,4.30
2019-04-20T08:04:06.640Z,4.60
2019-04-20T08:06:28.909Z,3.85
2019-04-20T08:09:11.616Z,3.33
2019-04-20T08:11:56.534Z,4.03
2019-04-20T08:14:31.832Z,3.83
2019-04-20T08:17:14.079Z,4.03
2019-04-20T08:19:41.003Z,3.50
2019-04-20T08:22:19.782Z,4.03
2019-04-20T08:24:48.458Z,4.28
2019-04-20T08:27:14.419Z,4.37
2019-04-20T08:30:09.085Z,4.08
2019-04-20T08:33:05.221Z,4.00
2019-04-20T08:35:52.589Z,3.80
2019-04-20T08:38:52.910Z,4.65
2019-04-20T08:41:00.298Z,4.75
2019-04-20T08:43:53.536Z,5.10
2019-04-20T08:46:17.781Z,4.65
2019-04-20T08:48:50.855Z,4.35
2019-04-20T08:51:26.065Z,3.77
2019-04-20T08:53:57.068Z,3.17
2019-04-20T08:56:31.163Z,3.02
2019-04-20T08:58:52.828Z,3.12
2019-04-20T09:01:30.884Z,3.33
2019-04-20T09:04:09.804Z,5.85
2019-04-20T09:06:54.541Z,4.30
2019-04-20T09:09:44.285Z,2.72
2019-04-20T09:12:06.395Z,2.80
2019-04-20T09:14:23.745Z,2.45
2019-04-20T09:17:06.839Z,2.95
2019-04-20T09:19:47.037Z,2.60
2019-04-20T09:22:38.785Z,2.22
2019-04-20T09:25:42.711Z,2.77
2019-04-20T09:27:50.765Z,3.87
2019-04-20T09:30:36.394Z,2.00
2019-04-20T09:33:14.586Z,2.17
2019-04-20T09:35:48.655Z,2.30
2019-04-20T09:38:21.702Z,1.60
2019-04-20T09:40:58.446Z,2.15
2019-04-20T09:43:34.748Z,2.55
2019-04-20T09:46:08.928Z,1.67
2019-04-20T09:48:53.569Z,1.62
2019-04-20T09:51:38.882Z,1.90
2019-04-20T09:54:05.306Z,4.85
2019-04-20T09:56:49.681Z,1.70
2019-04-20T09:59:22.060Z,2.10
2019-04-20T10:01:45.239Z,2.33
2019-04-20T10:04:15.323Z,2.37
2019-04-20T10:06:49.702Z,2.33
2019-04-20T10:09:29.458Z,2.25
2019-04-20T10:11:57.776Z,2.67
2019-04-20T10:14:31.080Z,2.65
2019-04-20T10:17:05.719Z,1.90
2019-04-20T10:19:40.096Z,2.45
2019-04-20T10:22:14.906Z,3.10
2019-04-20T10:24:50.335Z,2.40
2019-04-20T10:27:24.215Z,2.27
2019-04-20T10:30:00.744Z,1.60
2019-04-20T10:32:39.155Z,2.10
2019-04-20T10:35:08.989Z,2.15
2019-04-20T10:37:47.238Z,2.10
2019-04-20T10:40:35.834Z,2.05
2019-04-20T10:42:59.398Z,1.62
2019-04-20T10:45:30.882Z,2.30
2019-04-20T10:48:05.425Z,1.65
2019-04-20T10:50:39.020Z,2.10
2019-04-20T10:53:13.997Z,2.20
2019-04-20T10:55:47.427Z,1.98
2019-04-20T10:58:21.875Z,2.40
2019-04-20T11:00:55.744Z,2.65
2019-04-20T11:03:29.097Z,2.27
2019-04-20T11:06:02.812Z,2.20
2019-04-20T11:08:36.194Z,2.55
2019-04-20T11:11:16.405Z,1.90
2019-04-20T11:13:47.643Z,2.58
2019-04-20T11:16:26.600Z,3.00
2019-04-20T11:19:03.271Z,1.98
2019-04-20T11:21:36.943Z,1.45
2019-04-20T11:24:12.145Z,2.10
2019-04-20T11:26:46.862Z,2.22
2019-04-20T11:29:24.180Z,1.85
2019-04-20T11:31:58.192Z,2.55
2019-04-20T11:34:44.200Z,1.90
2019-04-20T11:37:19.345Z,2.00
2019-04-20T11:39:52.898Z,4.28
2019-04-20T11:42:26.173Z,1.75
2019-04-20T11:45:00.411Z,1.77
2019-04-20T11:48:11.641Z,1.90
2019-04-20T11:50:58.885Z,2.95
2019-04-20T11:53:34.807Z,1.90
2019-04-20T11:56:15.924Z,2.10
2019-04-20T11:58:43.183Z,2.00
2019-04-20T12:01:38.132Z,1.90
2019-04-20T12:04:24.907Z,1.80
2019-04-20T12:06:44.938Z,2.05
2019-04-20T12:09:19.047Z,1.77
2019-04-20T12:12:04.098Z,1.82
2019-04-20T12:14:28.465Z,1.90
2019-04-20T12:17:01.827Z,6.35
2019-04-20T12:19:36.295Z,2.08
2019-04-20T12:22:11.896Z,2.02
2019-04-20T12:24:47.918Z,1.82
2019-04-20T12:27:22.857Z,2.08
2019-04-20T12:29:57.552Z,2.10
2019-04-20T12:32:36.417Z,1.98
2019-04-20T12:35:08.603Z,1.98
2019-04-20T12:37:43.114Z,1.70
2019-04-20T12:40:19.929Z,1.87
2019-04-20T12:42:54.935Z,1.77
2019-04-20T12:45:42.423Z,1.82
2019-04-20T12:48:11.460Z,2.30
2019-04-20T12:50:47.800Z,1.98
2019-04-20T12:53:26.498Z,1.77
2019-04-20T12:56:04.354Z,1.60
2019-04-20T12:58:42.985Z,2.33
2019-04-20T13:01:23.724Z,1.92
2019-04-20T13:03:57.761Z,1.95
2019-04-20T13:06:32.146Z,1.57
2019-04-20T13:09:12.753Z,1.67
2019-04-20T13:12:09.943Z,1.80
2019-04-20T13:16:00.540Z,2.15
2019-04-20T13:18:47.517Z,1.85
2019-04-20T13:21:22.982Z,2.08
2019-04-20T13:23:56.640Z,1.90
2019-04-20T13:26:30.985Z,2.00
2019-04-20T13:29:06.776Z,1.70
2019-04-20T13:31:51.974Z,1.98
2019-04-20T13:34:19.906Z,2.87
2019-04-20T13:36:56.343Z,3.45
2019-04-20T13:39:30.965Z,3.08
2019-04-20T13:42:12.092Z,2.10
2019-04-20T13:44:39.197Z,1.45
2019-04-20T13:47:12.764Z,1.92
2019-04-20T13:49:47.087Z,1.70
2019-04-20T13:52:20.668Z,1.50
2019-04-20T13:54:55.908Z,2.20
2019-04-20T13:57:47.153Z,2.22
2019-04-20T14:00:55.544Z,2.00
2019-04-20T14:03:32.275Z,10.68
2019-04-20T14:06:06.849Z,20.48
2019-04-20T14:08:41.213Z,11.55
2019-04-20T14:11:15.606Z,3.95
2019-04-20T14:13:56.391Z,15.65
2019-04-20T14:16:25.159Z,3.45
2019-04-20T14:18:58.780Z,3.10
2019-04-20T14:21:32.628Z,3.00
2019-04-20T14:24:06.684Z,8.50
2019-04-20T14:26:42.121Z,3.87
2019-04-20T14:29:16.960Z,2.33
2019-04-20T14:31:50.427Z,2.67
2019-04-20T14:34:24.702Z,2.95
2019-04-20T14:37:00.279Z,12.82
2019-04-20T14:39:36.289Z,3.02
2019-04-20T14:42:09.976Z,2.70
2019-04-20T14:44:45.858Z,2.37
2019-04-20T14:47:19.279Z,1.90
2019-04-20T14:49:55.168Z,2.22
2019-04-20T14:52:29.440Z,2.10
2019-04-20T14:55:04.209Z,2.85
2019-04-20T14:57:37.457Z,8.08
2019-04-20T15:00:27.791Z,3.35
2019-04-20T15:03:19.860Z,4.30
2019-04-20T15:05:57.705Z,3.47
2019-04-20T15:08:32.401Z,4.05
2019-04-20T15:11:07.199Z,3.27
2019-04-20T15:13:40.753Z,2.85
2019-04-20T15:16:15.017Z,2.17
2019-04-20T15:19:05.641Z,2.70
2019-04-20T15:21:39.681Z,3.90
2019-04-20T15:24:13.403Z,2.50
2019-04-20T15:26:46.709Z,3.42
2019-04-20T15:29:22.135Z,2.50
2019-04-20T15:31:56.501Z,3.65
2019-04-20T15:34:30.914Z,3.30
2019-04-20T15:37:07.612Z,3.65
2019-04-20T15:39:41.150Z,4.90
2019-04-20T15:42:15.085Z,3.70
2019-04-20T15:44:58.874Z,3.12
2019-04-20T15:47:34.456Z,4.72
2019-04-20T15:50:09.744Z,3.62
2019-04-20T15:52:50.909Z,4.17
2019-04-20T15:55:29.611Z,2.60
2019-04-20T15:58:04.232Z,4.45
2019-04-20T16:00:38.378Z,3.87
2019-04-20T16:03:27.592Z,3.62
2019-04-20T16:06:39.191Z,4.78
2019-04-20T16:09:35.873Z,2.62
2019-04-20T16:12:17.254Z,3.70
2019-04-20T16:14:55.578Z,3.58
2019-04-20T16:17:36.363Z,3.22
2019-04-20T16:20:10.311Z,5.15
2019-04-20T16:22:40.550Z,4.10
2019-04-20T16:25:43.581Z,2.92
2019-04-20T16:28:17.373Z,25.02
2019-04-20T16:30:51.691Z,23.12
2019-04-20T16:33:26.062Z,12.05
2019-04-20T16:36:00.635Z,9.48
2019-04-20T16:38:35.087Z,8.13
2019-04-20T16:41:08.585Z,5.40
2019-04-20T16:43:44.717Z,5.08
2019-04-20T16:46:18.812Z,4.62
2019-04-20T16:48:52.659Z,5.50
2019-04-20T16:51:26.906Z,4.97
2019-04-20T16:54:01.539Z,6.08
2019-04-20T16:56:35.094Z,4.85
2019-04-20T16:59:10.327Z,7.85
2019-04-20T17:01:44.492Z,7.17
2019-04-20T17:04:22.037Z,8.78
2019-04-20T17:07:31.170Z,10.23
2019-04-20T17:10:04.596Z,7.55
2019-04-20T17:12:38.044Z,6.37
2019-04-20T17:15:15.833Z,8.10
2019-04-20T17:17:51.143Z,7.42
2019-04-20T17:20:25.742Z,14.73
2019-04-20T17:23:00.241Z,11.88
2019-04-20T17:25:34.372Z,11.08
2019-04-20T17:28:30.822Z,13.15
2019-04-20T17:31:39.702Z,12.88
2019-04-20T17:34:29.737Z,15.10
2019-04-20T17:36:50.633Z,17.75
2019-04-20T17:39:33.933Z,23.02
2019-04-20T17:42:16.849Z,29.02
2019-04-20T17:44:50.281Z,17.07
2019-04-20T17:47:32.917Z,16.60
2019-04-20T17:50:07.925Z,16.65
2019-04-20T17:52:44.854Z,16.27
2019-04-20T17:55:03.353Z,12.95
2019-04-20T17:57:37.310Z,10.13
2019-04-20T18:00:22.552Z,9.75
2019-04-20T18:03:12.338Z,10.38
2019-04-20T18:05:58.496Z,12.88
2019-04-20T18:08:32.159Z,10.80
2019-04-20T18:10:58.563Z,10.50
2019-04-20T18:13:28.563Z,12.45
2019-04-20T18:16:22.463Z,16.30
2019-04-20T18:19:05.654Z,18.57
2019-04-20T18:21:49.705Z,20.32
2019-04-20T18:24:50.720Z,20.12
2019-04-20T18:27:24.518Z,19.02
2019-04-20T18:29:53.443Z,17.05
2019-04-20T18:32:31.544Z,17.70
2019-04-20T18:35:12.200Z,16.52
2019-04-20T18:37:53.564Z,15.18
2019-04-20T18:40:29.124Z,14.28
2019-04-20T18:43:06.383Z,14.18
2019-04-20T18:45:52.738Z,13.62
2019-04-20T18:48:24.966Z,15.55
2019-04-20T18:50:44.231Z,17.50
2019-04-20T18:53:23.838Z,15.78
2019-04-20T18:55:55.315Z,13.90
2019-04-20T18:58:26.939Z,15.45
2019-04-20T19:01:01.152Z,18.80
2019-04-20T19:03:41.842Z,26.90
2019-04-20T19:06:11.235Z,135.80
2019-04-20T19:08:49.911Z,176.45
2019-04-20T19:11:23.223Z,203.45
2019-04-20T19:14:23.643Z,199.55
2019-04-20T19:17:05.623Z,143.78
2019-04-20T19:19:39.020Z,127.42
2019-04-20T19:22:07.926Z,74.82
2019-04-20T19:24:43.603Z,48.20
2019-04-20T19:27:37.847Z,43.80
2019-04-20T19:30:15.392Z,43.73
2019-04-20T19:32:54.484Z,46.23
2019-04-20T19:35:30.859Z,55.80
2019-04-20T19:38:01.465Z,80.45
2019-04-20T19:40:38.547Z,58.55
2019-04-20T19:43:13.185Z,31.15
2019-04-20T19:46:07.310Z,28.83
2019-04-20T19:48:24.091Z,27.50
2019-04-20T19:51:10.113Z,26.48
2019-04-20T19:53:44.227Z,31.23
2019-04-20T19:56:07.723Z,26.97
2019-04-20T19:58:45.640Z,37.83
2019-04-20T20:01:11.519Z,39.73
2019-04-20T20:03:50.623Z,31.33
2019-04-20T20:06:29.259Z,27.07
2019-04-20T20:09:04.170Z,32.60
2019-04-20T20:11:39.165Z,27.80
2019-04-20T20:14:13.071Z,27.93
2019-04-20T20:17:06.921Z,28.17
2019-04-20T20:19:35.529Z,25.08
2019-04-20T20:22:11.193Z,25.30
2019-04-20T20:24:31.387Z,24.95
2019-04-20T20:27:11.677Z,27.40
2019-04-20T20:29:47.260Z,30.17
2019-04-20T20:32:23.385Z,62.98
2019-04-20T20:34:56.217Z,154.93
2019-04-20T20:37:34.696Z,238.43
2019-04-20T20:40:13.566Z,138.20
2019-04-20T20:42:53.067Z,102.00
2019-04-20T20:45:22.695Z,70.52
2019-04-20T20:48:04.001Z,60.15
2019-04-20T20:50:42.067Z,52.38
2019-04-20T20:53:10.258Z,34.45
2019-04-20T20:55:40.949Z,37.38
2019-04-20T20:58:14.597Z,31.82
2019-04-20T21:00:54.385Z,33.33
2019-04-20T21:03:24.680Z,37.30
2019-04-20T21:05:53.626Z,27.22
2019-04-20T21:08:26.965Z,24.63
2019-04-20T21:11:00.240Z,23.15
2019-04-20T21:13:39.286Z,20.48
2019-04-20T21:16:16.372Z,20.12
2019-04-20T21:19:01.048Z,18.62
2019-04-20T21:21:33.519Z,19.80
2019-04-20T21:24:04.033Z,18.75
2019-04-20T21:26:38.718Z,23.25
2019-04-20T21:29:08.115Z,24.02
2019-04-20T21:31:43.454Z,21.85
2019-04-20T21:34:19.938Z,21.77
2019-04-20T21:36:55.345Z,21.85
2019-04-20T21:39:37.332Z,21.00
2019-04-20T21:42:09.443Z,21.15
2019-04-20T21:44:41.459Z,21.25
2019-04-20T21:47:15.618Z,20.23
2019-04-20T21:49:57.837Z,20.57
2019-04-20T21:52:26.965Z,22.20
2019-04-20T21:54:56.285Z,23.65
2019-04-20T21:57:32.587Z,23.20
2019-04-20T22:00:10.071Z,26.73
2019-04-20T22:02:48.862Z,48.52
2019-04-20T22:05:15.879Z,51.88
2019-04-20T22:07:50.345Z,38.28
2019-04-20T22:10:27.904Z,31.82
2019-04-20T22:13:01.094Z,30.25
2019-04-20T22:15:36.699Z,29.25
2019-04-20T22:18:12.571Z,30.40
2019-04-20T22:21:01.703Z,27.13
2019-04-20T22:23:41.768Z,35.78
2019-04-20T22:26:08.620Z,35.10
2019-04-20T22:28:29.831Z,31.50
2019-04-20T22:31:04.214Z,29.52
2019-04-20T22:33:41.194Z,28.62
2019-04-20T22:36:14.571Z,29.18
2019-04-20T22:39:09.475Z,26.68
2019-04-20T22:41:53.504Z,26.50
2019-04-20T22:44:28.388Z,24.07
2019-04-20T22:47:00.623Z,24.37
2019-04-20T22:49:48.559Z,24.45
2019-04-20T22:52:26.617Z,24.30
2019-04-20T22:55:08.067Z,23.67
2019-04-20T22:57:38.467Z,22.55
2019-04-20T23:00:03.442Z,23.52
2019-04-20T23:02:33.198Z,22.30
2019-04-20T23:05:06.979Z,22.32
2019-04-20T23:07:41.019Z,23.55
2019-04-20T23:10:20.281Z,21.25
2019-04-20T23:12:54.235Z,23.47
2019-04-20T23:15:25.914Z,22.35
2019-04-20T23:18:00.081Z,27.35
2019-04-20T23:20:36.099Z,29.02
2019-04-20T23:23:11.029Z,32.15
2019-04-20T23:25:45.037Z,37.13
2019-04-20T23:28:20.862Z,35.65
2019-04-20T23:31:00.090Z,32.55
2019-04-20T23:33:29.857Z,34.48
2019-04-20T23:36:05.083Z,36.85
2019-04-20T23:38:44.293Z,36.80
2019-04-20T23:41:15.446Z,36.15
2019-04-20T23:44:12.610Z,40.60
2019-04-20T23:47:18.367Z,40.98
2019-04-20T23:50:12.333Z,46.50
2019-04-20T23:52:53.926Z,52.40
2019-04-20T23:55:11.976Z,55.03
2019-04-20T23:57:56.205Z,52.83
